createdAt,value
2023-09-12T00:01:36.783Z,96277.09
2023-09-12T00:04:03.436Z,96279.03
2023-09-12T00:06:30.180Z,96284.44
2023-09-12T00:08:56.868Z,96282.91
2023-09-12T00:11:23.492Z,96278.28
2023-09-12T00:13:50.087Z,96284.06
2023-09-12T00:16:16.735Z,96284.44
2023-09-12T00:18:43.578Z,96281.34
2023-09-12T00:21:10.557Z,96279.81
2023-09-12T00:23:37.286Z,96281.34
2023-09-12T00:26:03.870Z,96276.72
2023-09-12T00:28:30.505Z,96275.19
2023-09-12T00:30:57.105Z,96275.19
2023-09-12T00:33:23.868Z,96273.66
2023-09-12T00:35:50.576Z,96275.56
2023-09-12T00:38:17.203Z,96284.03
2023-09-12T00:40:43.807Z,96265.56
2023-09-12T00:43:10.417Z,96275.94
2023-09-12T00:45:37.052Z,96266.72
2023-09-12T00:48:03.807Z,96268.66
2023-09-12T00:50:30.512Z,96261.31
2023-09-12T00:52:57.120Z,96264.41
2023-09-12T00:55:23.743Z,96267.53
2023-09-12T00:57:50.368Z,96255.22
2023-09-12T01:00:16.979Z,96256.75
2023-09-12T01:02:43.742Z,96249.44
2023-09-12T05:08:10.547Z,96247.78
2023-09-12T05:10:37.146Z,96243.53
2023-09-12T05:13:03.856Z,96243.13
2023-09-12T05:15:30.575Z,96254.25
2023-09-12T05:17:57.225Z,96250.78
2023-09-12T05:20:23.870Z,96249.63
2023-09-12T05:22:50.465Z,96258.88
2023-09-12T05:25:17.052Z,96258.88
2023-09-12T05:27:43.697Z,96254.31
2023-09-12T05:30:10.349Z,96255.06
2023-09-12T05:32:37.075Z,96251.25
2023-09-12T05:35:19.174Z,96250.13
2023-09-12T05:37:48.328Z,96249.31
2023-09-12T05:40:14.931Z,96254.69
2023-09-12T05:42:41.559Z,96250.47
2023-09-12T05:45:08.208Z,96255.09
2023-09-12T05:47:34.842Z,96256.22
2023-09-12T05:50:01.495Z,96264.31
2023-09-12T05:52:28.116Z,96264.69
2023-09-12T05:54:54.707Z,96258.88
2023-09-12T05:57:21.402Z,96260.78
2023-09-12T05:59:48.041Z,96270.41
2023-09-12T06:02:14.647Z,96272.81
2023-09-12T06:04:41.316Z,96275.97
2023-09-12T06:07:08.007Z,96277.53
2023-09-12T06:09:34.680Z,96278.66
2023-09-12T06:12:01.350Z,96272.47
2023-09-12T06:14:27.951Z,96274.75
2023-09-12T06:16:54.571Z,96279.38
2023-09-12T06:19:21.217Z,96271.72
2023-09-12T06:21:47.873Z,96274.75
2023-09-12T06:24:14.551Z,96277.03
2023-09-12T06:26:41.184Z,96275.91
2023-09-12T06:29:07.775Z,96279.38
2023-09-12T06:31:34.402Z,96280.91
2023-09-12T06:34:01.026Z,96280.13
2023-09-12T06:36:27.669Z,96269.34
2023-09-12T06:38:54.289Z,96279.38
2023-09-12T06:41:20.937Z,96285.13
2023-09-12T06:43:47.593Z,96276.63
2023-09-12T06:46:14.270Z,96283.19
2023-09-12T06:48:41.053Z,96281.97
2023-09-12T06:51:14.536Z,96292.31
2023-09-12T06:53:43.856Z,96300.78
2023-09-12T06:56:10.612Z,96296.16
2023-09-12T06:58:37.235Z,96296.59
2023-09-12T07:01:03.884Z,96286.22
2023-09-12T07:03:30.626Z,96298.56
2023-09-12T07:05:57.287Z,96297.75
2023-09-12T07:08:23.879Z,96310.06
2023-09-12T07:10:50.484Z,96300.78
2023-09-12T07:13:17.162Z,96294.28
2023-09-12T07:15:43.781Z,96297.00
2023-09-12T07:18:10.441Z,96299.28
2023-09-12T07:20:37.168Z,96293.53
2023-09-12T07:23:03.779Z,96292.38
2023-09-12T07:25:30.377Z,96306.25
2023-09-12T07:27:56.980Z,96312.78
2023-09-12T07:30:23.584Z,96314.28
2023-09-12T07:32:50.309Z,96312.56
2023-09-12T07:35:16.928Z,96310.94
2023-09-12T07:37:43.533Z,96311.72
2023-09-12T07:40:10.151Z,96312.16
2023-09-12T07:42:36.781Z,96311.41
2023-09-12T07:45:03.461Z,96315.25
2023-09-12T07:47:30.114Z,96309.97
2023-09-12T07:49:56.749Z,96314.66
2023-09-12T07:52:23.358Z,96320.09
2023-09-12T07:54:50.022Z,96323.56
2023-09-12T07:57:16.729Z,96322.38
2023-09-12T07:59:43.338Z,96325.44
2023-09-12T08:02:10.014Z,96329.66
2023-09-12T08:04:36.774Z,96331.19
2023-09-12T08:07:03.458Z,96325.44
2023-09-12T08:09:30.146Z,96331.22
2023-09-12T08:11:56.760Z,96330.06
2023-09-12T08:14:23.363Z,96329.66
2023-09-12T08:16:50.027Z,96333.13
2023-09-12T08:19:18.544Z,96332.38
2023-09-12T08:21:46.317Z,96324.31
2023-09-12T08:24:12.957Z,96325.44
2023-09-12T08:26:39.552Z,96326.97
2023-09-12T08:29:06.149Z,96333.91
2023-09-12T08:31:32.820Z,96323.09
2023-09-12T08:33:59.501Z,96330.81
2023-09-12T08:36:26.142Z,96333.53
2023-09-12T08:38:52.770Z,96334.28
2023-09-12T08:41:19.353Z,96334.28
2023-09-12T08:43:45.949Z,96327.03
2023-09-12T08:46:12.678Z,96330.13
2023-09-12T08:48:39.435Z,96332.81
2023-09-12T08:51:06.140Z,96331.66
2023-09-12T08:53:32.762Z,96332.03
2023-09-12T08:55:59.348Z,96334.75
2023-09-12T08:58:25.978Z,96343.59
2023-09-12T09:00:52.598Z,96336.69
2023-09-12T09:03:19.282Z,96330.88
2023-09-12T09:05:45.875Z,96337.03
2023-09-12T09:08:12.469Z,96335.50
2023-09-12T09:10:50.863Z,96342.44
2023-09-12T09:13:18.074Z,96331.59
2023-09-12T09:15:44.799Z,96331.22
2023-09-12T09:18:11.497Z,96327.34
2023-09-12T09:20:38.127Z,96328.50
2023-09-12T09:23:04.725Z,96329.66
2023-09-12T09:25:31.332Z,96326.97
2023-09-12T09:27:57.920Z,96331.22
2023-09-12T09:30:24.553Z,96319.66
2023-09-12T09:32:51.215Z,96321.22
2023-09-12T09:35:17.859Z,96323.91
2023-09-12T09:37:44.469Z,96321.22
2023-09-12T09:40:11.175Z,96306.56
2023-09-12T09:42:37.874Z,96309.25
2023-09-12T09:45:04.516Z,96317.41
2023-09-12T09:47:31.138Z,96308.53
2023-09-12T09:49:57.763Z,96295.06
2023-09-12T09:52:24.368Z,96302.00
2023-09-12T09:54:50.997Z,96307.38
2023-09-12T09:57:17.644Z,96304.69
2023-09-12T09:59:44.301Z,96307.84
2023-09-12T10:02:10.928Z,96302.88
2023-09-12T10:07:08.715Z,96305.53
2023-09-12T10:09:37.101Z,96294.25
2023-09-12T10:12:03.803Z,96289.22
2023-09-12T10:14:30.416Z,96286.50
2023-09-12T10:16:57.131Z,96286.16
2023-09-12T10:19:23.873Z,96293.47
2023-09-12T10:21:50.604Z,96286.56
2023-09-12T10:24:17.374Z,96290.06
2023-09-12T10:26:44.014Z,96294.28
2023-09-12T10:29:10.626Z,96295.06
2023-09-12T10:31:37.291Z,96294.28
2023-09-12T10:34:03.956Z,96288.50
2023-09-12T10:36:30.666Z,96288.50
2023-09-12T10:38:57.280Z,96290.00
2023-09-12T10:41:23.883Z,96285.03
2023-09-12T10:43:50.671Z,96285.81
2023-09-12T10:46:17.294Z,96280.81
2023-09-12T10:48:43.969Z,96283.44
2023-09-12T10:51:10.638Z,96287.69
2023-09-12T10:53:37.243Z,96279.19
2023-09-12T10:56:03.833Z,96280.66
2023-09-12T10:58:30.470Z,96270.63
2023-09-12T11:00:57.111Z,96275.63
2023-09-12T11:03:23.827Z,96275.63
2023-09-12T11:05:50.497Z,96269.09
2023-09-12T11:08:17.111Z,96278.72
2023-09-12T11:10:43.727Z,96272.22
2023-09-12T11:13:10.334Z,96264.13
2023-09-12T11:15:36.970Z,96272.63
2023-09-12T11:18:03.634Z,96269.50
2023-09-12T11:20:30.261Z,96269.50
2023-09-12T11:22:56.860Z,96269.56
2023-09-12T11:25:23.460Z,96264.94
2023-09-12T11:27:50.096Z,96267.56
2023-09-12T11:30:16.783Z,96268.34
2023-09-12T11:32:43.429Z,96262.19
2023-09-12T11:35:10.102Z,96265.25
2023-09-12T11:37:36.705Z,96271.00
2023-09-12T11:40:03.322Z,96260.22
2023-09-12T11:42:29.932Z,96252.91
2023-09-12T11:44:56.549Z,96266.31
2023-09-12T11:47:23.259Z,96250.91
2023-09-12T11:49:50.033Z,96251.66
2023-09-12T11:52:16.662Z,96253.59
2023-09-12T11:54:43.369Z,96246.66
2023-09-12T11:57:10.057Z,96244.75
2023-09-12T11:59:36.667Z,96245.50
2023-09-12T12:02:03.490Z,96251.69
2023-09-12T12:04:30.162Z,96247.03
2023-09-12T12:06:56.824Z,96243.56
2023-09-12T12:09:23.470Z,96237.41
2023-09-12T12:11:50.117Z,96241.22
2023-09-12T12:14:16.718Z,96227.78
2023-09-12T12:16:43.380Z,96236.25
2023-09-12T12:19:10.067Z,96237.75
2023-09-12T12:21:37.766Z,96234.31
2023-09-12T12:24:04.456Z,96233.56
2023-09-12T12:26:31.397Z,96225.78
2023-09-12T12:28:58.051Z,96221.16
2023-09-12T12:31:26.695Z,96221.16
2023-09-12T12:34:43.413Z,96226.56
2023-09-12T12:36:48.661Z,96223.47
2023-09-12T12:39:19.665Z,96219.59
2023-09-12T12:41:52.126Z,96225.00
2023-09-12T12:44:19.077Z,96219.22
2023-09-12T12:46:45.725Z,96220.00
2023-09-12T12:49:12.365Z,96220.75
2023-09-12T12:51:39.004Z,96223.81
2023-09-12T12:54:05.650Z,96223.81
2023-09-12T12:56:32.411Z,96213.38
2023-09-12T12:58:59.116Z,96219.59
2023-09-12T13:01:25.757Z,96215.72
2023-09-12T13:03:52.422Z,96202.66
2023-09-12T13:06:19.228Z,96204.94
2023-09-12T13:08:45.864Z,96203.75
2023-09-12T13:11:13.922Z,96201.81
2023-09-12T13:13:41.925Z,96205.72
2023-09-12T13:16:08.855Z,96199.88
2023-09-12T13:18:35.472Z,96197.16
2023-09-12T13:21:02.107Z,96189.44
2023-09-12T13:23:28.717Z,96180.97
2023-09-12T13:25:55.328Z,96171.66
2023-09-12T13:28:21.930Z,96174.72
2023-09-12T13:30:48.823Z,96180.13
2023-09-12T13:33:15.453Z,96169.31
2023-09-12T13:35:42.047Z,96167.03
2023-09-12T13:38:08.658Z,96161.31
2023-09-12T13:40:35.257Z,96163.63
2023-09-12T13:43:02.150Z,96156.31
2023-09-12T13:45:28.997Z,96172.09
2023-09-12T13:47:55.737Z,96160.13
2023-09-12T13:50:22.449Z,96157.44
2023-09-12T13:52:49.048Z,96155.47
2023-09-12T13:55:19.747Z,96156.69
2023-09-12T13:57:56.969Z,96162.41
2023-09-12T14:00:33.741Z,96159.03
2023-09-12T14:03:02.519Z,96153.03
2023-09-12T14:05:29.483Z,96149.75
2023-09-12T14:07:56.895Z,96144.78
2023-09-12T14:10:33.171Z,96146.03
2023-09-12T14:13:17.193Z,96144.13
2023-09-12T14:15:46.870Z,96139.16
2023-09-12T14:18:13.945Z,96137.63
2023-09-12T14:20:40.688Z,96133.75
2023-09-12T14:23:07.513Z,96139.16
2023-09-12T14:25:34.257Z,96140.66
2023-09-12T14:28:01.452Z,96135.25
2023-09-12T14:30:28.182Z,96146.81
2023-09-12T14:32:54.834Z,96133.75
2023-09-12T14:35:21.462Z,96135.25
2023-09-12T14:37:48.078Z,96141.84
2023-09-12T14:40:14.681Z,96136.88
2023-09-12T14:42:41.321Z,96134.94
2023-09-12T14:45:07.980Z,96127.16
2023-09-12T14:47:34.669Z,96136.47
2023-09-12T14:50:01.487Z,96131.41
2023-09-12T14:52:30.526Z,96127.16
2023-09-12T14:54:57.744Z,96129.47
2023-09-12T14:57:24.455Z,96119.06
2023-09-12T14:59:51.103Z,96126.44
2023-09-12T15:02:17.829Z,96119.06
2023-09-12T15:04:44.609Z,96124.47
2023-09-12T15:07:11.210Z,96121.38
2023-09-12T15:09:37.840Z,96122.13
2023-09-12T15:12:04.594Z,96124.13
2023-09-12T15:14:31.232Z,96118.34
2023-09-12T15:16:57.908Z,96125.25
2023-09-12T15:19:24.521Z,96122.91
2023-09-12T15:21:51.197Z,96122.97
2023-09-12T15:24:17.850Z,96121.03
2023-09-12T15:26:44.527Z,96122.13
2023-09-12T15:29:11.207Z,96125.59
2023-09-12T15:31:37.864Z,96124.84
2023-09-12T15:34:04.560Z,96131.41
2023-09-12T15:36:31.243Z,96121.03
2023-09-12T15:38:57.856Z,96125.66
2023-09-12T15:41:24.453Z,96133.75
2023-09-12T15:44:06.696Z,96136.03
2023-09-12T15:46:37.681Z,96129.13
2023-09-12T15:49:04.527Z,96133.34
2023-09-12T15:51:31.235Z,96140.66
2023-09-12T15:53:57.888Z,96146.06
2023-09-12T15:56:24.509Z,96150.72
2023-09-12T15:58:51.105Z,96154.16
2023-09-12T16:01:17.794Z,96148.72
2023-09-12T16:03:44.878Z,96144.09
2023-09-12T16:06:11.855Z,96146.78
2023-09-12T16:08:38.448Z,96147.53
2023-09-12T16:11:05.104Z,96144.41
2023-09-12T16:13:31.732Z,96146.03
2023-09-12T16:15:58.408Z,96157.97
2023-09-12T16:18:25.129Z,96154.13
2023-09-12T16:20:51.748Z,96147.19
2023-09-12T16:23:18.350Z,96150.28
2023-09-12T16:25:44.945Z,96154.50
2023-09-12T16:28:11.549Z,96146.41
2023-09-12T16:30:38.225Z,96148.75
2023-09-12T16:33:04.925Z,96147.59
2023-09-12T16:35:31.641Z,96141.78
2023-09-12T16:37:58.277Z,96147.19
2023-09-12T16:40:24.896Z,96156.03
2023-09-12T16:42:51.576Z,96158.34
2023-09-12T16:45:18.202Z,96161.50
2023-09-12T16:47:44.852Z,96168.41
2023-09-12T16:50:11.474Z,96159.91
2023-09-12T16:52:38.105Z,96164.53
2023-09-12T16:55:04.715Z,96164.53
2023-09-12T16:57:31.355Z,96174.53
2023-09-12T16:59:58.101Z,96172.25
2023-09-12T17:02:24.764Z,96179.16
2023-09-12T17:04:51.409Z,96185.31
2023-09-12T17:07:18.042Z,96188.44
2023-09-12T17:09:44.694Z,96194.22
2023-09-12T17:12:11.292Z,96198.84
2023-09-12T17:14:38.005Z,96201.16
2023-09-12T17:17:04.669Z,96201.16
2023-09-12T17:19:31.277Z,96192.69
2023-09-12T17:21:57.921Z,96198.09
2023-09-12T17:24:24.584Z,96199.69
2023-09-12T17:26:51.198Z,96192.00
2023-09-12T17:29:17.793Z,96187.38
2023-09-12T17:31:44.439Z,96198.53
2023-09-12T17:34:11.164Z,96190.00
2023-09-12T17:36:37.901Z,96194.63
2023-09-12T17:39:04.562Z,96194.22
2023-09-12T17:41:31.162Z,96192.69
2023-09-12T17:43:57.769Z,96196.59
2023-09-12T17:46:24.428Z,96200.03
2023-09-12T17:48:51.098Z,96204.69
2023-09-12T17:51:17.743Z,96193.13
2023-09-12T17:53:44.556Z,96193.53
2023-09-12T17:56:11.354Z,96201.66
2023-09-12T17:58:37.959Z,96197.78
2023-09-12T18:01:04.640Z,96195.06
2023-09-12T18:03:32.801Z,96196.22
2023-09-12T18:05:59.596Z,96191.59
2023-09-12T18:08:26.204Z,96200.47
2023-09-12T18:10:52.835Z,96202.78
2023-09-12T18:13:19.468Z,96202.78
2023-09-12T18:15:46.136Z,96213.19
2023-09-12T18:18:12.792Z,96220.50
2023-09-12T18:20:39.507Z,96224.75
2023-09-12T18:23:06.093Z,96228.97
2023-09-12T18:25:32.700Z,96225.19
2023-09-12T18:27:59.325Z,96232.50
2023-09-12T18:30:25.987Z,96240.59
2023-09-12T18:32:52.719Z,96246.34
2023-09-12T18:35:19.325Z,96245.56
2023-09-12T18:37:45.933Z,96251.75
2023-09-12T18:40:12.578Z,96257.94
2023-09-12T18:42:39.271Z,96259.50
2023-09-12T18:45:05.904Z,96262.19
2023-09-12T18:47:32.593Z,96271.06
2023-09-12T18:49:59.379Z,96285.72
2023-09-12T18:52:25.979Z,96288.81
2023-09-12T18:54:52.606Z,96293.44
2023-09-12T18:57:19.232Z,96301.13
2023-09-12T18:59:45.838Z,96302.66
2023-09-12T19:02:12.494Z,96310.34
2023-09-12T19:04:39.252Z,96309.59
2023-09-12T19:07:06.064Z,96313.47
2023-09-12T19:09:32.729Z,96312.28
2023-09-12T19:11:59.360Z,96315.38
2023-09-12T19:14:25.992Z,96316.56
2023-09-12T19:16:52.643Z,96317.66
2023-09-12T19:19:19.252Z,96328.06
2023-09-12T19:21:45.874Z,96318.03
2023-09-12T19:24:12.480Z,96317.69
2023-09-12T19:26:39.092Z,96315.00
2023-09-12T19:29:05.680Z,96322.31
2023-09-12T19:31:32.427Z,96325.81
2023-09-12T19:33:59.151Z,96328.16
2023-09-12T19:36:25.804Z,96326.66
2023-09-12T19:38:52.408Z,96334.31
2023-09-12T19:41:19.005Z,96330.84
2023-09-12T19:43:45.712Z,96331.28
2023-09-12T19:46:12.602Z,96335.44
2023-09-12T19:48:39.370Z,96338.16
2023-09-12T19:51:06.011Z,96339.69
2023-09-12T19:53:32.645Z,96343.53
2023-09-12T19:55:59.247Z,96338.19
2023-09-12T19:58:25.837Z,96334.28
2023-09-12T20:00:52.476Z,96335.03
2023-09-12T20:03:19.123Z,96326.94
2023-09-12T20:05:45.790Z,96331.19
2023-09-12T20:08:12.399Z,96329.22
2023-09-12T20:10:38.993Z,96335.00
2023-09-12T20:13:05.631Z,96347.38
2023-09-12T20:15:32.286Z,96348.94
2023-09-12T20:17:58.946Z,96362.81
2023-09-12T20:20:25.621Z,96367.44
2023-09-12T20:22:52.232Z,96366.69
2023-09-12T20:25:18.839Z,96364.00
2023-09-12T20:27:45.488Z,96369.00
2023-09-12T20:30:12.119Z,96376.69
2023-09-12T20:32:55.361Z,96376.28
2023-09-12T20:35:24.649Z,96378.63
2023-09-12T20:37:51.283Z,96383.63
2023-09-12T20:40:17.946Z,96392.88
2023-09-12T20:42:44.566Z,96390.53
2023-09-12T20:45:11.192Z,96394.81
2023-09-12T20:47:37.844Z,96402.84
2023-09-12T20:50:04.495Z,96394.81
2023-09-12T20:52:31.102Z,96402.84
2023-09-12T20:54:57.772Z,96402.41
2023-09-12T20:57:24.429Z,96405.53
2023-09-12T20:59:51.066Z,96405.88
2023-09-12T21:02:17.671Z,96410.59
2023-09-12T21:04:44.321Z,96415.63
2023-09-12T21:07:11.000Z,96412.16
2023-09-12T21:09:37.715Z,96415.31
2023-09-12T21:12:04.333Z,96418.78
2023-09-12T21:14:30.945Z,96416.84
2023-09-12T21:16:57.609Z,96421.41
2023-09-12T21:19:24.257Z,96422.19
2023-09-12T21:21:50.864Z,96421.41
2023-09-12T21:24:17.480Z,96428.72
2023-09-12T21:26:44.127Z,96428.72
2023-09-12T21:29:10.750Z,96431.44
2023-09-12T21:31:37.444Z,96429.13
2023-09-12T21:34:04.093Z,96430.25
2023-09-12T21:36:30.726Z,96426.31
2023-09-12T21:39:00.090Z,96431.69
2023-09-12T21:41:26.695Z,96430.59
2023-09-12T21:43:53.302Z,96421.69
2023-09-12T21:46:20.030Z,96427.00
2023-09-12T21:48:46.773Z,96425.13
2023-09-12T21:51:13.391Z,96422.91
2023-09-12T21:53:39.995Z,96425.66
2023-09-12T21:56:06.605Z,96423.78
2023-09-12T21:58:33.309Z,96424.97
2023-09-12T22:01:00.006Z,96425.69
2023-09-12T22:03:26.680Z,96423.00
2023-09-12T22:05:53.286Z,96420.31
2023-09-12T22:08:19.955Z,96421.09
2023-09-12T22:10:46.564Z,96426.09
2023-09-12T22:13:13.238Z,96423.00
2023-09-12T22:15:39.939Z,96426.88
2023-09-12T22:18:06.634Z,96427.66
2023-09-12T22:20:33.255Z,96426.16
2023-09-12T22:22:59.845Z,96410.31
2023-09-12T22:25:26.433Z,96408.78
2023-09-12T22:27:53.043Z,96416.47
2023-09-12T22:30:19.664Z,96414.53
2023-09-12T22:32:46.255Z,96412.28
2023-09-12T22:35:12.886Z,96408.03
2023-09-12T22:37:39.533Z,96408.47
2023-09-12T22:40:06.154Z,96403.44
2023-09-12T22:42:32.766Z,96403.03
2023-09-12T22:44:59.394Z,96397.25
2023-09-12T22:47:26.031Z,96401.09
2023-09-12T22:49:52.686Z,96400.75
2023-09-12T22:52:19.336Z,96398.81
2023-09-12T22:54:46.038Z,96407.28
2023-09-12T22:57:12.689Z,96412.28
2023-09-12T22:59:39.282Z,96404.97
2023-09-12T23:02:05.924Z,96411.13
2023-09-12T23:04:32.661Z,96416.56
2023-09-12T23:06:59.475Z,96411.53
2023-09-12T23:09:26.128Z,96411.53
2023-09-12T23:11:52.725Z,96409.19
2023-09-12T23:14:19.333Z,96409.59
2023-09-12T23:16:45.999Z,96415.38
2023-09-12T23:19:12.628Z,96413.84
2023-09-12T23:21:39.278Z,96423.13
2023-09-12T23:24:05.885Z,96418.09
2023-09-12T23:26:32.504Z,96418.47
2023-09-12T23:28:59.150Z,96418.09
2023-09-12T23:31:25.905Z,96425.03
2023-09-12T23:33:52.640Z,96428.47
2023-09-12T23:36:19.288Z,96427.72
2023-09-12T23:38:45.889Z,96430.41
2023-09-12T23:41:12.483Z,96428.47
2023-09-12T23:43:39.074Z,96422.31
2023-09-12T23:46:05.762Z,96421.94
2023-09-12T23:48:32.406Z,96418.47
2023-09-12T23:50:59.006Z,96415.03
2023-09-12T23:53:25.608Z,96419.69
2023-09-12T23:55:52.208Z,96406.19
2023-09-12T23:58:18.814Z,96404.25
